createdAt,value
2023-10-10T00:01:29.015Z,13.05
2023-10-10T00:03:55.958Z,13.03
2023-10-10T00:06:23.533Z,13.01
2023-10-10T00:08:51.925Z,12.99
2023-10-10T00:11:20.417Z,12.97
2023-10-10T00:13:48.123Z,12.96
2023-10-10T00:16:26.287Z,12.93
2023-10-10T00:18:57.071Z,12.92
2023-10-10T00:21:24.794Z,12.90
2023-10-10T00:23:52.376Z,12.88
2023-10-10T00:26:22.259Z,12.85
2023-10-10T00:28:58.741Z,12.84
2023-10-10T00:31:28.189Z,12.81
2023-10-10T00:33:56.343Z,12.79
2023-10-10T00:36:24.468Z,12.77
2023-10-10T00:38:59.073Z,12.76
2023-10-10T00:41:28.066Z,12.73
2023-10-10T00:43:55.133Z,12.71
2023-10-10T00:46:26.195Z,12.70
2023-10-10T00:49:01.387Z,12.68
2023-10-10T00:51:31.980Z,12.65
2023-10-10T00:54:24.781Z,12.61
2023-10-10T00:56:55.631Z,12.59
2023-10-10T00:59:35.928Z,12.58
2023-10-10T01:02:05.807Z,12.54
2023-10-10T01:04:37.026Z,12.52
2023-10-10T01:07:10.952Z,12.49
2023-10-10T01:09:56.763Z,12.47
2023-10-10T01:12:33.658Z,12.45
2023-10-10T01:15:05.019Z,12.42
2023-10-10T01:17:31.967Z,12.40
2023-10-10T01:20:19.494Z,12.38
2023-10-10T01:23:04.872Z,12.35
2023-10-10T01:25:34.414Z,12.33
2023-10-10T01:28:14.679Z,12.32
2023-10-10T01:30:45.888Z,12.29
2023-10-10T01:33:16.159Z,12.27
2023-10-10T01:35:43.225Z,12.25
2023-10-10T01:38:23.281Z,12.23
2023-10-10T01:40:50.012Z,12.21
2023-10-10T01:43:18.285Z,12.19
2023-10-10T01:45:49.629Z,12.17
2023-10-10T01:48:16.589Z,12.15
2023-10-10T01:50:44.504Z,12.13
2023-10-10T01:53:11.868Z,12.12
2023-10-10T01:55:38.960Z,12.10
2023-10-10T01:58:11.756Z,12.07
2023-10-10T02:00:38.725Z,12.06
2023-10-10T02:03:05.816Z,12.03
2023-10-10T02:05:38.551Z,12.02
2023-10-10T02:08:12.306Z,12.00
2023-10-10T02:10:45.325Z,11.98
2023-10-10T02:13:12.672Z,11.96
2023-10-10T02:15:40.999Z,11.95
2023-10-10T02:18:13.735Z,11.92
2023-10-10T02:20:46.827Z,11.89
2023-10-10T02:23:46.021Z,11.87
2023-10-10T02:26:27.090Z,11.84
2023-10-10T02:29:13.958Z,11.83
2023-10-10T02:31:43.314Z,11.80
2023-10-10T02:34:11.323Z,11.78
2023-10-10T02:36:42.125Z,11.77
2023-10-10T02:39:20.279Z,11.75
2023-10-10T02:41:52.103Z,11.73
2023-10-10T02:44:39.256Z,11.72
2023-10-10T02:47:06.478Z,11.70
2023-10-10T02:49:38.163Z,11.67
2023-10-10T02:52:08.084Z,11.66
2023-10-10T02:54:57.930Z,11.66
2023-10-10T02:57:27.486Z,11.63
2023-10-10T03:00:16.842Z,11.63
2023-10-10T03:02:51.222Z,11.62
2023-10-10T03:05:21.999Z,11.60
2023-10-10T03:07:54.823Z,11.59
2023-10-10T03:10:36.811Z,11.58
2023-10-10T03:13:26.601Z,11.58
2023-10-10T03:15:56.760Z,11.57
2023-10-10T03:18:31.593Z,11.57
2023-10-10T03:21:13.392Z,11.56
2023-10-10T03:23:55.391Z,11.55
2023-10-10T03:26:55.129Z,11.54
2023-10-10T03:29:22.856Z,11.52
2023-10-10T03:32:10.254Z,11.53
2023-10-10T03:34:46.350Z,11.52
2023-10-10T03:37:29.148Z,11.52
2023-10-10T03:39:58.951Z,11.52
2023-10-10T03:42:44.659Z,11.52
2023-10-10T03:45:38.053Z,11.52
2023-10-10T03:48:23.670Z,11.51
2023-10-10T03:51:09.343Z,11.50
2023-10-10T03:53:54.726Z,11.50
2023-10-10T03:56:40.044Z,11.49
2023-10-10T03:59:25.776Z,11.48
2023-10-10T04:02:14.324Z,11.47
2023-10-10T04:05:12.102Z,11.44
2023-10-10T04:08:06.280Z,11.43
2023-10-10T04:10:51.562Z,11.42
2023-10-10T04:13:36.944Z,11.40
2023-10-10T04:16:27.848Z,11.39
2023-10-10T04:19:32.006Z,11.36
2023-10-10T04:22:17.337Z,11.33
2023-10-10T04:25:03.198Z,11.30
2023-10-10T04:27:48.222Z,11.27
2023-10-10T04:30:33.786Z,11.23
2023-10-10T04:33:19.291Z,11.20
2023-10-10T04:36:25.371Z,11.18
2023-10-10T04:39:10.764Z,11.15
2023-10-10T04:42:14.806Z,11.12
2023-10-10T04:44:59.641Z,11.09
2023-10-10T04:47:45.230Z,11.05
2023-10-10T04:50:30.603Z,11.04
2023-10-10T04:53:16.077Z,11.00
2023-10-10T04:56:01.516Z,10.96
2023-10-10T04:58:46.727Z,10.90
2023-10-10T05:01:32.089Z,10.85
2023-10-10T05:04:17.527Z,10.84
2023-10-10T05:07:03.104Z,10.83
2023-10-10T05:09:48.545Z,10.81
2023-10-10T05:12:33.952Z,10.79
2023-10-10T05:15:19.465Z,10.78
2023-10-10T05:18:05.027Z,10.59
2023-10-10T05:20:50.236Z,10.02
2023-10-10T05:23:35.572Z,9.28
2023-10-10T05:26:21.683Z,8.68
2023-10-10T05:28:49.595Z,8.20
2023-10-10T05:31:22.683Z,7.92
2023-10-10T05:33:49.755Z,7.74
2023-10-10T05:36:19.636Z,7.60
2023-10-10T05:38:47.402Z,7.41
2023-10-10T05:41:14.140Z,7.39
2023-10-10T05:43:41.085Z,7.24
2023-10-10T05:46:08.237Z,7.14
2023-10-10T05:48:36.847Z,7.09
2023-10-10T05:51:10.073Z,7.06
2023-10-10T05:53:37.435Z,7.03
2023-10-10T05:56:20.277Z,6.98
2023-10-10T05:58:48.576Z,6.99
2023-10-10T06:01:16.068Z,6.94
2023-10-10T06:03:43.943Z,6.94
2023-10-10T06:15:13.500Z,7.06
2023-10-10T06:17:40.663Z,7.17
2023-10-10T06:20:07.971Z,7.16
2023-10-10T06:22:34.725Z,7.27
2023-10-10T06:25:01.543Z,7.27
2023-10-10T06:27:34.209Z,7.30
2023-10-10T06:30:01.395Z,7.37
2023-10-10T06:32:32.252Z,7.46
2023-10-10T06:35:25.493Z,7.58
2023-10-10T06:37:55.448Z,7.62
2023-10-10T06:40:32.042Z,7.72
2023-10-10T06:43:01.748Z,7.84
2023-10-10T06:45:36.077Z,7.95
2023-10-10T06:48:26.354Z,7.99
2023-10-10T06:50:53.193Z,8.05
2023-10-10T06:53:35.558Z,8.13
2023-10-10T06:56:16.008Z,8.28
2023-10-10T06:58:44.693Z,8.42
2023-10-10T07:01:12.967Z,8.54
2023-10-10T07:03:48.035Z,8.70
2023-10-10T07:06:15.065Z,8.80
2023-10-10T07:08:42.324Z,8.91
2023-10-10T07:11:11.970Z,9.03
2023-10-10T07:13:45.122Z,9.13
2023-10-10T07:16:12.606Z,9.22
2023-10-10T07:18:44.015Z,9.33
2023-10-10T07:21:31.874Z,9.42
2023-10-10T07:24:06.473Z,9.51
2023-10-10T07:26:42.350Z,9.58
2023-10-10T07:29:29.086Z,9.68
2023-10-10T07:32:06.100Z,9.79
2023-10-10T07:34:36.437Z,9.90
2023-10-10T07:37:09.519Z,10.01
2023-10-10T07:39:56.425Z,10.10
2023-10-10T07:42:31.965Z,10.23
2023-10-10T07:44:58.949Z,10.40
2023-10-10T07:47:27.549Z,10.57
2023-10-10T07:50:00.839Z,10.76
2023-10-10T07:52:27.633Z,10.85
2023-10-10T07:54:54.896Z,10.99
2023-10-10T07:57:27.871Z,11.17
2023-10-10T07:59:59.539Z,11.36
2023-10-10T08:02:33.128Z,11.57
2023-10-10T08:05:10.864Z,11.74
2023-10-10T08:07:38.415Z,11.92
2023-10-10T08:10:43.738Z,12.06
2023-10-10T08:13:13.566Z,12.19
2023-10-10T08:15:54.071Z,12.27
2023-10-10T08:18:39.721Z,12.39
2023-10-10T08:21:07.259Z,12.51
2023-10-10T08:23:37.165Z,12.65
2023-10-10T08:26:04.135Z,12.76
2023-10-10T08:28:30.821Z,12.89
2023-10-10T08:30:59.189Z,13.01
2023-10-10T08:33:27.875Z,13.15
2023-10-10T08:35:54.819Z,13.28
2023-10-10T08:38:21.924Z,13.26
2023-10-10T08:40:59.218Z,13.36
2023-10-10T08:43:29.986Z,13.45
2023-10-10T08:46:05.538Z,13.67
2023-10-10T08:48:35.294Z,13.79
2023-10-10T08:51:05.480Z,13.99
2023-10-10T08:53:37.655Z,14.00
2023-10-10T08:56:04.572Z,14.13
2023-10-10T08:58:34.784Z,14.22
2023-10-10T09:01:02.533Z,14.25
2023-10-10T09:03:36.128Z,14.24
2023-10-10T09:06:17.472Z,14.32
2023-10-10T09:08:45.189Z,14.31
2023-10-10T09:11:12.931Z,14.62
2023-10-10T09:13:55.373Z,14.81
2023-10-10T09:16:43.406Z,15.06
2023-10-10T09:19:10.221Z,15.27
2023-10-10T09:21:57.126Z,15.42
2023-10-10T09:24:32.933Z,15.59
2023-10-10T09:27:08.672Z,15.61
2023-10-10T09:29:43.437Z,15.48
2023-10-10T09:32:15.202Z,15.55
2023-10-10T09:34:42.993Z,15.56
2023-10-10T09:37:15.377Z,15.83
2023-10-10T09:39:44.691Z,15.98
2023-10-10T09:42:29.121Z,16.14
2023-10-10T09:45:02.968Z,16.35
2023-10-10T09:47:45.094Z,16.36
2023-10-10T09:50:24.232Z,16.48
2023-10-10T09:52:54.968Z,16.58
2023-10-10T09:55:26.327Z,16.69
2023-10-10T09:58:07.087Z,16.86
2023-10-10T10:00:40.142Z,16.99
2023-10-10T10:03:27.327Z,17.16
2023-10-10T10:06:01.427Z,17.17
2023-10-10T10:08:45.864Z,17.24
2023-10-10T10:11:27.397Z,17.23
2023-10-10T10:14:16.516Z,17.40
2023-10-10T10:16:48.265Z,17.57
2023-10-10T10:19:20.582Z,17.68
2023-10-10T10:22:07.006Z,17.87
2023-10-10T10:24:45.437Z,18.14
2023-10-10T10:27:44.472Z,18.24
2023-10-10T10:30:19.581Z,18.41
2023-10-10T10:32:50.452Z,18.61
2023-10-10T10:35:37.925Z,18.62
2023-10-10T10:38:08.147Z,18.65
2023-10-10T10:40:41.681Z,18.88
2023-10-10T10:43:15.303Z,19.01
2023-10-10T10:45:46.491Z,19.09
2023-10-10T10:48:32.579Z,19.29
2023-10-10T10:51:05.108Z,19.50
2023-10-10T10:53:39.968Z,19.67
2023-10-10T10:56:19.529Z,19.63
2023-10-10T10:58:55.837Z,19.69
2023-10-10T11:01:29.748Z,19.83
2023-10-10T11:03:59.600Z,20.03
2023-10-10T11:06:26.491Z,20.14
2023-10-10T11:11:27.075Z,20.33
2023-10-10T11:14:01.484Z,20.45
2023-10-10T11:16:38.445Z,20.40
2023-10-10T11:19:24.390Z,20.54
2023-10-10T11:21:54.782Z,20.66
2023-10-10T11:24:26.801Z,20.76
2023-10-10T11:27:15.455Z,20.73
2023-10-10T11:29:46.197Z,20.76
2023-10-10T11:32:14.690Z,20.57
2023-10-10T11:34:45.300Z,20.42
2023-10-10T11:37:15.201Z,20.55
2023-10-10T11:39:48.434Z,20.69
2023-10-10T11:42:31.317Z,20.88
2023-10-10T11:45:03.275Z,20.86
2023-10-10T11:47:31.465Z,20.89
2023-10-10T11:50:10.100Z,21.02
2023-10-10T11:52:53.942Z,21.11
2023-10-10T11:55:22.106Z,21.17
2023-10-10T11:57:50.425Z,21.19
2023-10-10T12:00:27.843Z,21.15
2023-10-10T12:02:56.854Z,21.10
2023-10-10T12:05:30.063Z,21.25
2023-10-10T12:07:59.698Z,21.45
2023-10-10T12:10:32.309Z,21.47
2023-10-10T12:12:59.036Z,21.53
2023-10-10T12:15:25.629Z,21.48
2023-10-10T12:17:58.434Z,21.37
2023-10-10T12:20:26.518Z,21.39
2023-10-10T12:22:53.214Z,21.49
2023-10-10T12:25:19.964Z,21.37
2023-10-10T12:27:49.274Z,21.43
2023-10-10T12:30:20.295Z,21.52
2023-10-10T12:32:50.477Z,21.65
2023-10-10T12:35:18.640Z,21.84
2023-10-10T12:37:45.500Z,22.09
2023-10-10T12:40:12.793Z,22.20
2023-10-10T12:42:40.159Z,22.08
2023-10-10T12:45:07.857Z,22.28
2023-10-10T12:47:34.786Z,22.26
2023-10-10T12:50:01.854Z,22.42
2023-10-10T12:52:36.373Z,22.53
2023-10-10T12:55:10.989Z,22.64
2023-10-10T12:57:38.572Z,22.68
2023-10-10T13:00:25.992Z,22.65
2023-10-10T13:02:54.847Z,22.78
2023-10-10T13:05:28.567Z,22.89
2023-10-10T13:07:59.713Z,22.96
2023-10-10T13:10:31.803Z,22.78
2023-10-10T13:13:27.685Z,22.96
2023-10-10T13:16:09.003Z,22.90
2023-10-10T13:18:36.783Z,22.77
2023-10-10T13:21:04.183Z,22.66
2023-10-10T13:23:31.723Z,22.78
2023-10-10T13:25:58.430Z,22.53
2023-10-10T13:28:25.373Z,22.70
2023-10-10T13:30:52.160Z,22.54
2023-10-10T13:33:21.450Z,22.26
2023-10-10T13:35:49.950Z,22.26
2023-10-10T13:38:17.032Z,22.12
2023-10-10T13:40:47.370Z,21.89
2023-10-10T13:43:23.518Z,21.55
2023-10-10T13:45:50.413Z,21.65
2023-10-10T13:48:20.227Z,21.75
2023-10-10T13:50:47.692Z,21.73
2023-10-10T13:53:15.558Z,21.67
2023-10-10T13:55:43.468Z,21.25
2023-10-10T13:58:13.242Z,21.35
2023-10-10T14:00:53.518Z,21.34
2023-10-10T14:03:30.218Z,21.28
2023-10-10T14:06:02.107Z,21.28
2023-10-10T14:08:31.799Z,21.33
2023-10-10T14:11:00.416Z,21.32
2023-10-10T14:13:30.600Z,21.40
2023-10-10T14:16:02.101Z,21.36
2023-10-10T14:18:33.504Z,21.15
2023-10-10T14:21:09.126Z,21.05
2023-10-10T14:23:42.015Z,20.84
2023-10-10T14:26:20.062Z,20.75
2023-10-10T14:28:52.868Z,20.67
2023-10-10T14:31:22.268Z,20.60
2023-10-10T14:33:50.082Z,20.55
2023-10-10T14:36:17.921Z,20.54
2023-10-10T14:38:49.334Z,20.37
2023-10-10T14:41:21.493Z,20.42
2023-10-10T14:43:51.227Z,20.47
2023-10-10T14:46:42.328Z,20.69
2023-10-10T14:49:18.542Z,20.85
2023-10-10T14:51:49.677Z,21.02
2023-10-10T14:54:20.471Z,20.93
2023-10-10T14:56:47.540Z,20.98
2023-10-10T14:59:19.261Z,20.98
2023-10-10T15:01:49.860Z,20.76
2023-10-10T15:04:21.229Z,20.51
2023-10-10T15:06:55.670Z,20.17
2023-10-10T15:09:25.740Z,19.98
2023-10-10T15:12:02.873Z,20.10
2023-10-10T15:14:33.252Z,19.82
2023-10-10T15:17:01.981Z,19.48
2023-10-10T15:19:29.222Z,19.40
2023-10-10T15:21:57.413Z,19.08
2023-10-10T15:24:24.945Z,18.89
2023-10-10T15:26:53.124Z,18.79
2023-10-10T15:29:22.526Z,18.62
2023-10-10T15:31:51.341Z,18.54
2023-10-10T15:34:18.580Z,18.29
2023-10-10T15:36:46.914Z,18.07
2023-10-10T15:39:13.978Z,17.87
2023-10-10T15:41:43.841Z,17.62
2023-10-10T15:44:13.867Z,17.43
2023-10-10T15:46:44.035Z,17.25
2023-10-10T15:49:24.767Z,17.11
2023-10-10T15:51:59.354Z,16.95
2023-10-10T15:54:30.432Z,16.88
2023-10-10T15:56:57.262Z,16.85
2023-10-10T15:59:25.812Z,16.70
2023-10-10T16:01:52.690Z,16.64
2023-10-10T16:04:21.942Z,16.52
2023-10-10T16:06:48.817Z,16.37
2023-10-10T16:09:21.579Z,16.27
2023-10-10T16:11:55.063Z,16.13
2023-10-10T16:14:22.824Z,15.98
2023-10-10T16:16:50.169Z,15.90
2023-10-10T16:19:33.593Z,15.75
2023-10-10T16:22:04.219Z,15.60
2023-10-10T16:24:30.968Z,15.43
2023-10-10T16:27:01.455Z,15.29
2023-10-10T16:29:35.643Z,15.09
2023-10-10T16:32:08.708Z,14.94
2023-10-10T16:34:43.664Z,14.84
2023-10-10T16:37:15.522Z,14.69
2023-10-10T16:39:47.485Z,14.57
2023-10-10T16:42:21.151Z,14.49
2023-10-10T16:44:48.399Z,14.35
2023-10-10T16:47:18.185Z,14.31
2023-10-10T16:49:46.116Z,14.20
2023-10-10T16:52:12.897Z,14.06
2023-10-10T16:54:41.813Z,13.97
2023-10-10T16:57:12.328Z,13.89
2023-10-10T16:59:39.471Z,13.76
2023-10-10T17:02:06.879Z,13.65
2023-10-10T17:04:34.710Z,13.59
2023-10-10T17:07:01.492Z,13.55
2023-10-10T17:09:29.696Z,13.44
2023-10-10T17:12:03.670Z,13.30
2023-10-10T17:14:30.719Z,13.22
2023-10-10T17:16:57.636Z,13.11
2023-10-10T17:19:24.961Z,13.11
2023-10-10T17:21:51.890Z,13.23
2023-10-10T17:24:21.970Z,13.36
2023-10-10T17:26:49.032Z,13.49
2023-10-10T17:29:16.555Z,13.62
2023-10-10T17:31:43.834Z,13.73
2023-10-10T17:34:16.296Z,13.84
2023-10-10T17:36:43.589Z,13.96
2023-10-10T17:39:10.519Z,14.04
2023-10-10T17:41:37.469Z,14.13
2023-10-10T17:44:10.364Z,14.21
2023-10-10T17:46:37.632Z,14.28
2023-10-10T17:49:06.188Z,14.33
2023-10-10T17:51:34.765Z,14.37
2023-10-10T17:54:01.887Z,14.43
2023-10-10T17:56:28.932Z,14.46
2023-10-10T17:58:55.790Z,14.51
2023-10-10T18:01:22.751Z,14.54
2023-10-10T18:03:54.693Z,14.56
2023-10-10T18:06:41.272Z,14.58
2023-10-10T18:09:10.877Z,14.59
2023-10-10T18:11:38.960Z,14.61
2023-10-10T18:14:06.543Z,14.62
2023-10-10T18:16:35.444Z,14.63
2023-10-10T18:19:02.760Z,14.62
2023-10-10T18:21:31.619Z,14.63
2023-10-10T18:23:58.436Z,14.63
2023-10-10T18:26:25.632Z,14.63
2023-10-10T18:28:54.101Z,14.63
2023-10-10T18:31:31.634Z,14.62
2023-10-10T18:33:59.366Z,14.62
2023-10-10T18:36:26.404Z,14.61
2023-10-10T18:38:53.743Z,14.60
2023-10-10T18:41:24.715Z,14.61
2023-10-10T18:43:52.196Z,14.60
2023-10-10T18:46:18.909Z,14.58
2023-10-10T18:48:46.716Z,14.58
2023-10-10T18:51:15.269Z,14.57
2023-10-10T18:53:42.757Z,14.56
2023-10-10T18:56:09.738Z,14.54
2023-10-10T18:58:40.249Z,14.53
2023-10-10T19:01:08.779Z,14.52
2023-10-10T19:03:35.759Z,14.48
2023-10-10T19:06:02.827Z,14.48
2023-10-10T19:08:29.730Z,14.47
2023-10-10T19:10:56.396Z,14.44
2023-10-10T19:13:23.098Z,14.42
2023-10-10T19:15:49.841Z,14.41
2023-10-10T19:18:17.502Z,14.39
2023-10-10T19:20:44.844Z,14.36
2023-10-10T19:23:11.674Z,14.36
2023-10-10T19:25:48.296Z,14.34
2023-10-10T19:28:16.799Z,14.31
2023-10-10T19:30:44.087Z,14.30
2023-10-10T19:33:12.362Z,14.28
2023-10-10T19:35:45.264Z,14.26
2023-10-10T19:38:13.084Z,14.23
2023-10-10T19:40:44.471Z,14.21
2023-10-10T19:43:14.217Z,14.19
2023-10-10T19:45:41.648Z,14.17
2023-10-10T19:48:08.562Z,14.14
2023-10-10T19:50:39.980Z,14.12
2023-10-10T19:53:07.103Z,14.08
2023-10-10T19:55:38.564Z,14.06
2023-10-10T19:58:10.677Z,14.04
2023-10-10T20:00:44.038Z,14.00
2023-10-10T20:03:14.734Z,13.99
2023-10-10T20:05:42.664Z,13.98
2023-10-10T20:08:14.392Z,13.94
2023-10-10T20:10:41.753Z,13.92
2023-10-10T20:13:08.764Z,13.89
2023-10-10T20:15:41.008Z,13.87
2023-10-10T20:18:09.669Z,13.83
2023-10-10T20:20:37.561Z,13.81
2023-10-10T20:23:04.496Z,13.79
2023-10-10T20:25:32.526Z,13.77
2023-10-10T20:28:05.403Z,13.74
2023-10-10T20:30:34.072Z,13.72
2023-10-10T20:33:04.852Z,13.70
2023-10-10T20:35:35.696Z,13.67
2023-10-10T20:38:07.259Z,13.65
2023-10-10T20:40:36.383Z,13.61
2023-10-10T20:43:10.250Z,13.59
2023-10-10T20:45:37.914Z,13.55
2023-10-10T20:48:10.465Z,13.53
2023-10-10T20:50:41.995Z,13.50
2023-10-10T20:53:09.194Z,13.48
2023-10-10T20:55:36.147Z,13.44
2023-10-10T20:58:03.032Z,13.42
2023-10-10T21:00:35.681Z,13.40
2023-10-10T21:03:07.418Z,13.37
2023-10-10T21:05:35.573Z,13.35
2023-10-10T21:08:03.678Z,13.32
2023-10-10T21:10:33.867Z,13.30
2023-10-10T21:13:02.978Z,13.26
2023-10-10T21:15:31.306Z,13.24
2023-10-10T21:18:00.374Z,13.22
2023-10-10T21:20:32.160Z,13.19
2023-10-10T21:23:02.800Z,13.16
2023-10-10T21:25:33.230Z,13.12
2023-10-10T21:28:18.930Z,13.10
2023-10-10T21:30:45.736Z,13.08
2023-10-10T21:33:12.483Z,13.06
2023-10-10T21:35:41.925Z,13.03
2023-10-10T21:38:08.998Z,13.00
2023-10-10T21:40:35.761Z,12.98
2023-10-10T21:43:03.438Z,12.96
2023-10-10T21:45:33.904Z,12.93
2023-10-10T21:48:04.812Z,12.92
2023-10-10T21:50:32.611Z,12.88
2023-10-10T21:52:59.655Z,12.85
2023-10-10T21:55:28.793Z,12.83
2023-10-10T21:57:58.878Z,12.79
2023-10-10T22:00:32.079Z,12.77
2023-10-10T22:03:05.287Z,12.76
2023-10-10T22:05:33.121Z,12.73
2023-10-10T22:07:59.997Z,12.71
2023-10-10T22:10:27.675Z,12.68
2023-10-10T22:12:55.627Z,12.66
2023-10-10T22:15:25.850Z,12.64
2023-10-10T22:17:58.461Z,12.61
2023-10-10T22:20:29.038Z,12.59
2023-10-10T22:22:56.011Z,12.54
2023-10-10T22:25:23.431Z,12.52
2023-10-10T22:27:52.501Z,12.51
2023-10-10T22:30:25.735Z,12.49
2023-10-10T22:32:54.461Z,12.46
2023-10-10T22:35:22.802Z,12.44
2023-10-10T22:37:51.227Z,12.42
2023-10-10T22:40:18.763Z,12.39
2023-10-10T22:42:45.775Z,12.37
2023-10-10T22:45:13.040Z,12.35
2023-10-10T22:47:39.962Z,12.32
2023-10-10T22:50:08.642Z,12.30
2023-10-10T22:52:39.011Z,12.28
2023-10-10T22:55:11.164Z,12.25
2023-10-10T22:57:38.264Z,12.23
2023-10-10T23:00:14.321Z,12.21
2023-10-10T23:02:43.260Z,12.18
2023-10-10T23:05:10.126Z,12.16
2023-10-10T23:07:39.604Z,12.14
2023-10-10T23:10:06.758Z,12.12
2023-10-10T23:12:37.470Z,12.10
2023-10-10T23:15:12.575Z,12.07
2023-10-10T23:17:44.261Z,12.05
2023-10-10T23:20:20.174Z,12.03
2023-10-10T23:22:50.264Z,12.02
2023-10-10T23:25:21.286Z,12.01
2023-10-10T23:27:48.875Z,11.98
2023-10-10T23:30:23.050Z,11.96
2023-10-10T23:32:50.887Z,11.95
2023-10-10T23:35:22.714Z,11.92
2023-10-10T23:37:53.587Z,11.88
2023-10-10T23:40:22.682Z,11.86
2023-10-10T23:42:52.201Z,11.85
2023-10-10T23:45:26.531Z,11.84
2023-10-10T23:47:56.290Z,11.82
2023-10-10T23:50:27.247Z,11.79
2023-10-10T23:52:55.799Z,11.77
2023-10-10T23:55:23.661Z,11.74
2023-10-10T23:57:55.650Z,11.73
